Time;durP1;ratioP1;P1;durP2;ratioP2;P2;SDS_P1;SDS_P2;PMS_P1;PMS_P2;Temp;Humidity;BMP_temperature;BMP_pressure;BME280_temperature;BME280_humidity;BME280_pressure;Samples;Min_cycle;Max_cycle;Signal;HPM_P1;HPM_P2
2020/12/23 00:00:08;;;;;;;2.38;0.60;;;;;;;;;;4955737;28;20057;-67
2020/12/23 00:02:34;;;;;;;1.15;0.70;;;;;;;;;;4956179;28;20046;-67
2020/12/23 00:05:01;;;;;;;1.45;0.70;;;;;;;;;;4955495;28;20046;-67
2020/12/23 00:07:27;;;;;;;1.25;0.70;;;;;;;;;;4955695;28;20039;-67
2020/12/23 00:09:54;;;;;;;1.65;0.75;;;;;;;;;;4955931;28;20061;-67
2020/12/23 00:12:20;;;;;;;1.60;0.63;;;;;;;;;;4956396;28;20050;-67
2020/12/23 00:14:46;;;;;;;0.80;0.65;;;;;;;;;;4956110;28;20054;-67
2020/12/23 00:17:12;;;;;;;1.92;0.60;;;;;;;;;;4955263;28;20058;-67
2020/12/23 00:19:39;;;;;;;0.70;0.70;;;;;;;;;;4955932;28;20050;-67
2020/12/23 00:22:05;;;;;;;1.10;0.90;;;;;;;;;;4955679;28;20055;-67
2020/12/23 00:24:31;;;;;;;1.20;0.80;;;;;;;;;;4956179;28;20058;-67
2020/12/23 00:26:57;;;;;;;0.85;0.68;;;;;;;;;;4954967;28;20049;-67
2020/12/23 00:29:23;;;;;;;0.98;0.88;;;;;;;;;;4955159;28;20058;-67
2020/12/23 00:31:52;;;;;;;1.52;1.00;;;;;;;;;;4955478;28;20058;-67
2020/12/23 00:34:18;;;;;;;0.55;0.50;;;;;;;;;;4955907;28;20498;-67
2020/12/23 00:36:58;;;;;;;1.08;0.63;;;;;;;;;;4954735;28;20390;-67
2020/12/23 00:39:24;;;;;;;1.30;0.70;;;;;;;;;;4941202;28;20051;-67
2020/12/23 00:41:50;;;;;;;0.55;0.55;;;;;;;;;;4954978;28;20047;-68
2020/12/23 00:44:17;;;;;;;1.63;0.63;;;;;;;;;;4955791;28;20047;-67
2020/12/23 00:46:44;;;;;;;0.60;0.60;;;;;;;;;;4955079;28;20414;-67
2020/12/23 00:49:10;;;;;;;0.80;0.55;;;;;;;;;;4954935;28;20051;-66
2020/12/23 00:51:36;;;;;;;1.05;0.50;;;;;;;;;;4955251;28;20061;-67
2020/12/23 00:54:02;;;;;;;0.45;0.43;;;;;;;;;;4955547;28;20390;-67
2020/12/23 00:56:29;;;;;;;1.13;0.63;;;;;;;;;;4955099;28;20043;-67
2020/12/23 00:58:55;;;;;;;1.20;0.60;;;;;;;;;;4955195;28;20482;-68
2020/12/23 01:01:21;;;;;;;0.85;0.65;;;;;;;;;;4955317;28;20051;-67
2020/12/23 01:03:47;;;;;;;0.60;0.50;;;;;;;;;;4939669;28;20047;-67
2020/12/23 01:06:13;;;;;;;0.52;0.52;;;;;;;;;;4954749;28;20043;-67
2020/12/23 01:08:41;;;;;;;0.88;0.60;;;;;;;;;;4955445;28;20046;-67
2020/12/23 01:11:09;;;;;;;0.57;0.57;;;;;;;;;;4955176;28;20128;-66
2020/12/23 01:13:36;;;;;;;0.60;0.50;;;;;;;;;;4955794;28;20051;-66
2020/12/23 01:16:03;;;;;;;0.57;0.50;;;;;;;;;;4954587;28;20049;-67
2020/12/23 01:18:29;;;;;;;0.63;0.40;;;;;;;;;;4955522;28;20401;-67
2020/12/23 01:20:55;;;;;;;0.70;0.47;;;;;;;;;;4954897;28;20057;-67
2020/12/23 01:23:21;;;;;;;1.55;0.70;;;;;;;;;;4955478;28;20058;-67
2020/12/23 01:25:51;;;;;;;0.73;0.68;;;;;;;;;;4954366;28;20050;-67
2020/12/23 01:28:18;;;;;;;0.70;0.40;;;;;;;;;;4939091;28;20049;-68
2020/12/23 01:30:44;;;;;;;2.13;0.75;;;;;;;;;;4955002;28;20055;-67
2020/12/23 01:33:10;;;;;;;1.55;0.63;;;;;;;;;;4955331;28;20053;-67
2020/12/23 01:35:37;;;;;;;0.98;0.60;;;;;;;;;;4954516;28;20051;-66
2020/12/23 01:38:03;;;;;;;1.48;0.60;;;;;;;;;;4955224;28;20066;-66
2020/12/23 01:40:30;;;;;;;1.08;0.63;;;;;;;;;;4957542;28;20058;-67
2020/12/23 01:42:56;;;;;;;0.45;0.40;;;;;;;;;;4958699;28;20444;-67
2020/12/23 01:45:22;;;;;;;0.50;0.40;;;;;;;;;;4957997;28;20057;-67
2020/12/23 01:47:48;;;;;;;0.80;0.50;;;;;;;;;;4958907;28;20065;-66
2020/12/23 01:50:15;;;;;;;1.45;0.50;;;;;;;;;;4942598;28;20410;-67
2020/12/23 01:52:41;;;;;;;1.13;0.70;;;;;;;;;;4958901;28;20494;-67
2020/12/23 01:55:09;;;;;;;1.20;0.40;;;;;;;;;;4958285;28;20054;-67
2020/12/23 01:57:35;;;;;;;1.30;0.50;;;;;;;;;;4958195;28;20050;-67
2020/12/23 02:00:06;;;;;;;1.88;0.43;;;;;;;;;;4957777;28;20046;-67
2020/12/23 02:02:33;;;;;;;0.50;0.40;;;;;;;;;;4958575;28;20050;-66
2020/12/23 02:05:00;;;;;;;0.90;0.70;;;;;;;;;;4958148;28;20054;-66
2020/12/23 02:07:30;;;;;;;0.40;0.40;;;;;;;;;;4957389;28;20046;-66
2020/12/23 02:09:58;;;;;;;0.50;0.50;;;;;;;;;;4957856;28;20513;-66
2020/12/23 02:12:25;;;;;;;1.73;0.30;;;;;;;;;;4958386;28;20046;-66
2020/12/23 02:14:54;;;;;;;0.35;0.35;;;;;;;;;;4958238;28;20054;-66
2020/12/23 02:17:21;;;;;;;0.60;0.50;;;;;;;;;;4957541;28;20065;-66
2020/12/23 02:19:50;;;;;;;0.55;0.35;;;;;;;;;;4958437;28;20054;-67
2020/12/23 02:22:27;;;;;;;1.80;0.40;;;;;;;;;;4957134;28;20423;-67
2020/12/23 02:24:54;;;;;;;1.10;0.63;;;;;;;;;;4958112;28;20062;-67
2020/12/23 02:27:20;;;;;;;0.50;0.30;;;;;;;;;;4957043;28;20051;-66
2020/12/23 02:29:49;;;;;;;0.98;0.40;;;;;;;;;;4957458;28;20061;-68
2020/12/23 02:32:15;;;;;;;1.27;0.40;;;;;;;;;;4974208;28;20039;-68
2020/12/23 02:34:42;;;;;;;1.27;0.50;;;;;;;;;;4958175;28;20093;-67
2020/12/23 02:37:10;;;;;;;0.90;0.50;;;;;;;;;;4957259;28;20047;-67
2020/12/23 02:39:37;;;;;;;0.30;0.20;;;;;;;;;;4957765;28;20409;-67
2020/12/23 02:42:04;;;;;;;1.23;0.30;;;;;;;;;;4957337;28;20531;-67
2020/12/23 02:44:31;;;;;;;0.40;0.30;;;;;;;;;;4957635;28;20062;-66
2020/12/23 02:46:58;;;;;;;0.68;0.32;;;;;;;;;;4956692;28;20239;-66
2020/12/23 02:49:25;;;;;;;1.02;0.30;;;;;;;;;;4959058;28;20051;-66
2020/12/23 02:51:52;;;;;;;0.20;0.20;;;;;;;;;;4956706;28;20069;-66
2020/12/23 02:54:18;;;;;;;0.32;0.30;;;;;;;;;;4957562;28;20405;-67
2020/12/23 02:56:44;;;;;;;0.88;0.40;;;;;;;;;;4956715;28;20046;-66
2020/12/23 02:59:11;;;;;;;1.08;0.20;;;;;;;;;;4957781;28;20055;-67
2020/12/23 03:01:37;;;;;;;0.30;0.30;;;;;;;;;;4957267;28;20090;-67
2020/12/23 03:04:04;;;;;;;0.68;0.40;;;;;;;;;;4957045;28;20410;-67
2020/12/23 03:06:30;;;;;;;0.40;0.25;;;;;;;;;;4956697;28;20054;-67
2020/12/23 03:08:57;;;;;;;0.35;0.32;;;;;;;;;;4957378;28;20053;-66
2020/12/23 03:11:23;;;;;;;0.40;0.40;;;;;;;;;;4957434;28;20062;-66
2020/12/23 03:13:49;;;;;;;0.25;0.25;;;;;;;;;;4974131;28;20074;-67
2020/12/23 03:16:15;;;;;;;0.50;0.22;;;;;;;;;;4956264;28;20062;-66
2020/12/23 03:18:41;;;;;;;2.00;0.32;;;;;;;;;;4957317;28;20043;-66
2020/12/23 03:21:08;;;;;;;0.77;0.40;;;;;;;;;;4973005;28;20055;-67
2020/12/23 03:23:35;;;;;;;0.45;0.30;;;;;;;;;;4971675;28;20062;-67
2020/12/23 03:26:03;;;;;;;0.30;0.30;;;;;;;;;;4955954;28;20133;-67
2020/12/23 03:28:30;;;;;;;1.65;0.40;;;;;;;;;;4956330;28;20043;-67
2020/12/23 03:30:57;;;;;;;0.70;0.40;;;;;;;;;;4956531;28;20043;-67
2020/12/23 03:33:23;;;;;;;1.13;0.45;;;;;;;;;;4956781;28;20058;-66
2020/12/23 03:35:49;;;;;;;1.92;0.30;;;;;;;;;;4956254;28;20047;-67
2020/12/23 03:38:16;;;;;;;0.38;0.38;;;;;;;;;;4956832;28;20058;-66
2020/12/23 03:40:42;;;;;;;0.40;0.30;;;;;;;;;;4956750;28;20050;-67
2020/12/23 03:43:08;;;;;;;2.05;0.38;;;;;;;;;;4955753;28;20055;-67
2020/12/23 03:45:34;;;;;;;0.30;0.30;;;;;;;;;;4956208;28;20109;-66
2020/12/23 03:48:01;;;;;;;0.35;0.30;;;;;;;;;;4956671;28;20050;-67
2020/12/23 03:50:27;;;;;;;1.17;0.30;;;;;;;;;;4956025;28;20050;-66
2020/12/23 03:52:53;;;;;;;1.27;0.30;;;;;;;;;;4956102;28;20406;-67
2020/12/23 03:55:20;;;;;;;0.32;0.32;;;;;;;;;;4955969;28;20097;-67
2020/12/23 03:57:46;;;;;;;0.43;0.30;;;;;;;;;;4956272;28;20047;-66
2020/12/23 04:03:55;;;;;;;0.30;0.30;;;;;;;;;;4947388;23;20057;-67
2020/12/23 04:06:21;;;;;;;0.25;0.25;;;;;;;;;;4972827;28;20190;-66
2020/12/23 04:08:47;;;;;;;0.65;0.40;;;;;;;;;;4972828;28;20179;-66
2020/12/23 04:11:13;;;;;;;0.30;0.30;;;;;;;;;;4973112;28;20505;-67
2020/12/23 04:28:41;;;;;;;0.32;0.30;;;;;;;;;;4979476;23;20577;-67
2020/12/23 04:31:07;;;;;;;0.28;0.28;;;;;;;;;;4972442;28;20511;-68
2020/12/23 04:33:33;;;;;;;0.75;0.30;;;;;;;;;;4972301;28;20058;-66
2020/12/23 04:35:59;;;;;;;1.58;0.60;;;;;;;;;;4971868;28;20124;-67
2020/12/23 04:38:25;;;;;;;0.80;0.60;;;;;;;;;;4973281;28;20075;-67
2020/12/23 04:40:52;;;;;;;0.63;0.50;;;;;;;;;;4972688;28;20125;-66
2020/12/23 08:44:09;;;;;;;0.82;0.60;;;;;;;;;;4932017;29;20059;-65
2020/12/23 08:46:37;;;;;;;1.15;0.65;;;;;;;;;;4932577;29;20288;-66
2020/12/23 08:49:03;;;;;;;1.23;0.70;;;;;;;;;;4932297;29;20071;-65
2020/12/23 08:51:31;;;;;;;0.75;0.50;;;;;;;;;;4934345;29;20459;-67
2020/12/23 08:53:57;;;;;;;0.47;0.47;;;;;;;;;;4934130;29;20111;-66
2020/12/23 09:04:05;;;;;;;1.25;0.50;;;;;;;;;;4926431;23;20047;-66
2020/12/23 09:06:33;;;;;;;1.73;0.60;;;;;;;;;;4971644;28;20054;-65
2020/12/23 09:09:25;;;;;;;1.25;0.63;;;;;;;;;;4972211;28;20086;-66
2020/12/23 09:11:52;;;;;;;0.90;0.60;;;;;;;;;;4968345;28;20054;-66
2020/12/23 09:14:34;;;;;;;0.70;0.70;;;;;;;;;;4972555;28;20083;-66
2020/12/23 09:17:08;;;;;;;0.98;0.70;;;;;;;;;;4973283;28;20050;-66
2020/12/23 09:19:59;;;;;;;1.25;0.80;;;;;;;;;;4973984;28;20124;-67
2020/12/23 09:22:28;;;;;;;2.63;1.15;;;;;;;;;;4974476;28;20046;-65
2020/12/23 09:25:14;;;;;;;1.70;0.93;;;;;;;;;;4977234;28;20042;-66
2020/12/23 09:27:41;;;;;;;1.25;0.57;;;;;;;;;;4972770;28;20106;-67
2020/12/23 09:30:07;;;;;;;0.70;0.60;;;;;;;;;;4972349;28;20046;-65
2020/12/23 09:32:34;;;;;;;1.20;0.70;;;;;;;;;;4972167;28;20046;-66
2020/12/23 09:35:16;;;;;;;0.80;0.55;;;;;;;;;;4955521;28;20047;-66
2020/12/23 09:37:43;;;;;;;1.50;0.60;;;;;;;;;;4950319;28;20106;-65
2020/12/23 09:40:17;;;;;;;1.60;0.55;;;;;;;;;;4959918;28;20114;-66
2020/12/23 09:42:49;;;;;;;0.80;0.50;;;;;;;;;;4958390;28;20459;-65
2020/12/23 09:45:15;;;;;;;0.70;0.60;;;;;;;;;;4959606;28;20575;-65
2020/12/23 09:47:43;;;;;;;1.30;0.70;;;;;;;;;;4957889;28;20734;-65
2020/12/23 09:50:10;;;;;;;1.45;0.60;;;;;;;;;;4957768;28;20106;-65
2020/12/23 09:52:36;;;;;;;0.50;0.50;;;;;;;;;;4958420;28;20078;-65
2020/12/23 09:55:03;;;;;;;1.10;0.60;;;;;;;;;;4959580;28;20044;-65
2020/12/23 09:57:30;;;;;;;1.42;0.80;;;;;;;;;;4960511;28;20044;-67
2020/12/23 09:59:56;;;;;;;1.75;0.75;;;;;;;;;;4956692;28;20039;-65
2020/12/23 10:02:23;;;;;;;0.93;0.70;;;;;;;;;;4961772;28;20051;-66
2020/12/23 10:04:49;;;;;;;1.38;0.63;;;;;;;;;;4961965;28;20125;-66
2020/12/23 10:07:20;;;;;;;3.22;1.60;;;;;;;;;;4944900;28;20104;-65
2020/12/23 10:09:51;;;;;;;1.13;0.80;;;;;;;;;;4960433;28;20093;-65
2020/12/23 10:12:20;;;;;;;1.02;0.85;;;;;;;;;;4962046;28;20051;-66
2020/12/23 10:14:46;;;;;;;1.33;0.85;;;;;;;;;;4961292;28;20047;-66
2020/12/23 10:17:12;;;;;;;0.90;0.68;;;;;;;;;;4960435;28;20047;-65
2020/12/23 10:19:38;;;;;;;0.60;0.60;;;;;;;;;;4964310;28;20050;-65
2020/12/23 10:22:05;;;;;;;1.30;1.20;;;;;;;;;;4958886;28;20090;-65
2020/12/23 10:24:31;;;;;;;1.40;1.10;;;;;;;;;;4959941;28;20467;-66
2020/12/23 10:26:57;;;;;;;1.23;0.80;;;;;;;;;;4962772;28;20043;-65
2020/12/23 10:29:23;;;;;;;1.25;0.70;;;;;;;;;;4962006;28;20055;-66
2020/12/23 10:31:49;;;;;;;1.27;0.80;;;;;;;;;;4919948;28;20106;-67
2020/12/23 10:34:15;;;;;;;1.42;0.80;;;;;;;;;;4960611;28;20067;-65
2020/12/23 10:36:42;;;;;;;1.17;0.80;;;;;;;;;;4959179;28;20055;-66
2020/12/23 10:39:08;;;;;;;1.98;0.90;;;;;;;;;;4963717;28;20055;-65
2020/12/23 10:41:34;;;;;;;1.63;0.82;;;;;;;;;;4959723;28;20078;-66
2020/12/23 10:44:00;;;;;;;1.10;0.70;;;;;;;;;;4964409;28;20042;-66
2020/12/23 10:46:26;;;;;;;0.98;0.88;;;;;;;;;;4959384;28;20138;-66
2020/12/23 10:48:52;;;;;;;2.13;0.90;;;;;;;;;;4963569;28;20059;-66
2020/12/23 10:51:18;;;;;;;0.90;0.73;;;;;;;;;;4961545;28;20122;-66
2020/12/23 10:53:44;;;;;;;1.55;0.80;;;;;;;;;;4961258;28;20508;-66
2020/12/23 10:56:10;;;;;;;1.80;0.90;;;;;;;;;;4962052;28;20446;-66
2020/12/23 10:58:36;;;;;;;0.98;0.70;;;;;;;;;;4961322;28;20043;-66
2020/12/23 11:01:05;;;;;;;1.60;0.88;;;;;;;;;;4960208;28;20119;-65
2020/12/23 11:03:32;;;;;;;2.05;1.30;;;;;;;;;;4963373;28;20106;-65
2020/12/23 11:06:01;;;;;;;1.52;1.42;;;;;;;;;;4969487;28;20121;-65
2020/12/23 11:08:27;;;;;;;0.98;0.90;;;;;;;;;;4973371;28;20513;-65
2020/12/23 11:10:53;;;;;;;1.08;0.80;;;;;;;;;;4973276;28;20085;-66
2020/12/23 11:13:20;;;;;;;3.13;1.02;;;;;;;;;;4955466;28;20105;-65
2020/12/23 11:15:46;;;;;;;0.70;0.70;;;;;;;;;;4973124;28;20070;-64
2020/12/23 11:18:12;;;;;;;0.80;0.80;;;;;;;;;;4973060;28;20055;-66
2020/12/23 11:20:39;;;;;;;1.45;0.70;;;;;;;;;;4973315;28;20109;-66
2020/12/23 11:23:06;;;;;;;2.25;0.70;;;;;;;;;;4973292;28;20074;-65
2020/12/23 11:25:32;;;;;;;1.52;0.70;;;;;;;;;;4972736;28;20055;-65
2020/12/23 11:27:58;;;;;;;1.02;0.70;;;;;;;;;;4972667;28;20097;-65
2020/12/23 11:30:25;;;;;;;1.45;0.85;;;;;;;;;;4973011;28;20086;-66
2020/12/23 11:32:51;;;;;;;1.10;0.70;;;;;;;;;;4973375;28;20050;-65
2020/12/23 11:35:18;;;;;;;0.90;0.70;;;;;;;;;;4955225;28;20143;-65
2020/12/23 11:37:44;;;;;;;1.40;0.98;;;;;;;;;;4962387;28;20129;-66
2020/12/23 11:40:10;;;;;;;2.03;0.70;;;;;;;;;;4942048;28;20502;-65
2020/12/23 11:42:41;;;;;;;5.00;2.72;;;;;;;;;;4961574;28;20063;-66
2020/12/23 11:45:09;;;;;;;0.90;0.80;;;;;;;;;;4959795;28;20046;-67
2020/12/23 11:47:35;;;;;;;1.10;1.00;;;;;;;;;;4958894;28;20051;-65
2020/12/23 11:50:02;;;;;;;1.35;1.00;;;;;;;;;;4959119;28;20054;-66
2020/12/23 11:52:28;;;;;;;0.90;0.90;;;;;;;;;;4961685;28;20109;-65
2020/12/23 11:54:54;;;;;;;1.45;1.00;;;;;;;;;;4959788;28;20097;-65
2020/12/23 11:57:20;;;;;;;1.42;1.00;;;;;;;;;;4957113;28;20094;-67
2020/12/23 11:59:46;;;;;;;1.67;1.30;;;;;;;;;;4959774;28;20498;-68
2020/12/23 12:02:12;;;;;;;2.53;0.80;;;;;;;;;;4957393;28;20105;-65
2020/12/23 12:04:38;;;;;;;1.77;0.95;;;;;;;;;;4959464;28;20051;-65
2020/12/23 12:07:04;;;;;;;0.85;0.82;;;;;;;;;;4958099;28;20498;-67
2020/12/23 12:09:31;;;;;;;1.40;0.90;;;;;;;;;;4959471;28;20490;-67
2020/12/23 12:11:57;;;;;;;3.40;1.27;;;;;;;;;;4957994;28;20083;-68
2020/12/23 12:14:24;;;;;;;1.27;1.10;;;;;;;;;;4962464;28;20430;-68
2020/12/23 12:16:50;;;;;;;2.53;0.90;;;;;;;;;;4967220;28;20109;-69
2020/12/23 12:19:16;;;;;;;2.92;0.60;;;;;;;;;;4970631;28;20046;-69
2020/12/23 12:21:42;;;;;;;1.38;0.77;;;;;;;;;;4970430;28;20050;-69
2020/12/23 12:24:08;;;;;;;0.93;0.80;;;;;;;;;;4969418;28;20524;-70
2020/12/23 12:26:35;;;;;;;0.88;0.70;;;;;;;;;;4969814;28;20421;-66
2020/12/23 12:29:01;;;;;;;1.45;1.02;;;;;;;;;;4970256;28;20399;-67
2020/12/23 12:31:28;;;;;;;2.85;0.90;;;;;;;;;;4971066;28;20164;-64
2020/12/23 12:33:55;;;;;;;1.33;0.70;;;;;;;;;;4969939;28;20101;-67
2020/12/23 12:36:21;;;;;;;3.05;1.30;;;;;;;;;;4969943;28;20105;-67
2020/12/23 12:38:48;;;;;;;1.15;0.88;;;;;;;;;;4970456;28;20437;-68
2020/12/23 12:41:14;;;;;;;1.20;0.80;;;;;;;;;;4970028;28;20054;-65
2020/12/23 12:43:40;;;;;;;1.20;0.90;;;;;;;;;;4970577;28;20089;-65
2020/12/23 12:46:08;;;;;;;1.77;1.30;;;;;;;;;;4970809;28;20349;-64
2020/12/23 12:48:34;;;;;;;2.00;1.50;;;;;;;;;;4965151;28;20097;-65
2020/12/23 12:51:00;;;;;;;1.67;1.20;;;;;;;;;;4956866;28;20133;-65
2020/12/23 12:53:26;;;;;;;1.70;1.27;;;;;;;;;;4971677;28;20046;-64
2020/12/23 12:55:55;;;;;;;2.65;1.70;;;;;;;;;;4971279;28;20101;-64
2020/12/23 12:58:21;;;;;;;3.50;2.03;;;;;;;;;;4971861;28;20422;-64
2020/12/23 13:00:47;;;;;;;1.70;1.20;;;;;;;;;;4955545;28;20043;-64
2020/12/23 13:03:13;;;;;;;3.63;1.55;;;;;;;;;;4960183;28;20508;-64
2020/12/23 13:05:41;;;;;;;2.53;1.50;;;;;;;;;;4957178;28;20407;-64
2020/12/23 13:08:07;;;;;;;1.35;1.25;;;;;;;;;;4958140;28;20047;-64
2020/12/23 13:10:56;;;;;;;3.85;1.67;;;;;;;;;;4961264;28;20494;-64
2020/12/23 13:13:25;;;;;;;3.30;1.42;;;;;;;;;;4911162;28;20051;-64
2020/12/23 13:15:51;;;;;;;2.33;1.20;;;;;;;;;;4960205;28;20066;-64
2020/12/23 13:18:17;;;;;;;2.90;1.83;;;;;;;;;;4961152;28;20049;-64
2020/12/23 13:20:44;;;;;;;3.78;1.50;;;;;;;;;;4958676;28;20390;-64
2020/12/23 13:23:10;;;;;;;1.73;1.30;;;;;;;;;;4959674;28;20055;-64
2020/12/23 13:25:36;;;;;;;5.00;2.08;;;;;;;;;;4958095;28;20454;-64
2020/12/23 13:28:02;;;;;;;4.68;2.50;;;;;;;;;;4956136;28;20102;-64
2020/12/23 13:30:29;;;;;;;2.47;1.60;;;;;;;;;;4958799;28;20557;-64
2020/12/23 13:32:55;;;;;;;3.03;1.90;;;;;;;;;;4957618;28;20434;-64
2020/12/23 13:35:21;;;;;;;18.33;7.72;;;;;;;;;;4959390;28;20047;-64
2020/12/23 13:37:50;;;;;;;11.52;4.38;;;;;;;;;;4963280;28;20109;-64
2020/12/23 13:40:16;;;;;;;62.10;24.58;;;;;;;;;;4962930;28;20051;-64
2020/12/23 13:42:42;;;;;;;74.18;34.90;;;;;;;;;;4962372;28;20047;-64
2020/12/23 13:45:08;;;;;;;27.40;15.38;;;;;;;;;;4961555;28;20066;-64
2020/12/23 13:47:34;;;;;;;10.25;6.82;;;;;;;;;;4959803;28;20110;-64
2020/12/23 13:50:01;;;;;;;5.85;4.13;;;;;;;;;;4961957;28;20050;-64
2020/12/23 13:52:27;;;;;;;5.25;2.78;;;;;;;;;;4960620;28;20051;-63
2020/12/23 13:54:53;;;;;;;3.47;2.80;;;;;;;;;;4961294;28;20085;-64
2020/12/23 13:57:20;;;;;;;2.38;1.50;;;;;;;;;;4961445;28;20467;-63
2020/12/23 13:59:46;;;;;;;2.03;1.40;;;;;;;;;;4960911;28;20042;-64
2020/12/23 14:02:12;;;;;;;1.58;1.40;;;;;;;;;;4962516;28;20161;-64
2020/12/23 14:04:38;;;;;;;1.63;1.20;;;;;;;;;;4964218;28;20047;-61
2020/12/23 14:07:04;;;;;;;1.92;1.20;;;;;;;;;;4959729;28;20097;-61
2020/12/23 14:09:30;;;;;;;2.10;1.30;;;;;;;;;;4960942;28;20071;-62
2020/12/23 14:12:06;;;;;;;4.05;1.10;;;;;;;;;;4962500;28;20046;-61
2020/12/23 14:14:32;;;;;;;1.58;1.42;;;;;;;;;;4962327;28;20138;-62
2020/12/23 14:16:58;;;;;;;3.92;1.60;;;;;;;;;;4963603;28;20529;-61
2020/12/23 14:19:24;;;;;;;2.78;1.50;;;;;;;;;;4957077;28;20459;-64
2020/12/23 14:21:50;;;;;;;2.30;1.70;;;;;;;;;;4959485;28;20492;-64
2020/12/23 14:24:22;;;;;;;1.65;1.17;;;;;;;;;;4958670;28;20051;-64
2020/12/23 14:26:48;;;;;;;4.20;0.90;;;;;;;;;;4956982;28;20260;-65
2020/12/23 14:29:14;;;;;;;1.90;1.30;;;;;;;;;;4958028;28;20051;-63
2020/12/23 14:31:42;;;;;;;1.13;1.00;;;;;;;;;;4960641;28;20082;-64
2020/12/23 14:34:08;;;;;;;0.88;0.80;;;;;;;;;;4950251;28;20054;-64
2020/12/23 14:36:35;;;;;;;1.58;1.10;;;;;;;;;;4957836;28;20055;-64
2020/12/23 14:39:02;;;;;;;1.60;1.15;;;;;;;;;;4958846;28;20039;-64
2020/12/23 14:41:28;;;;;;;2.85;1.60;;;;;;;;;;4957927;28;20089;-64
2020/12/23 14:43:55;;;;;;;2.20;0.82;;;;;;;;;;4963968;28;20043;-64
2020/12/23 14:46:21;;;;;;;2.55;0.90;;;;;;;;;;4971453;28;20098;-64
2020/12/23 14:48:47;;;;;;;2.75;1.80;;;;;;;;;;4971820;28;20172;-64
2020/12/23 14:51:20;;;;;;;2.67;1.10;;;;;;;;;;4971448;28;20525;-64
2020/12/23 14:53:46;;;;;;;2.33;1.85;;;;;;;;;;4972604;28;20054;-64
2020/12/23 14:56:22;;;;;;;3.50;2.55;;;;;;;;;;4970698;28;20176;-63
2020/12/23 14:58:48;;;;;;;3.10;2.10;;;;;;;;;;4971353;28;20078;-64
2020/12/23 15:01:15;;;;;;;3.08;2.20;;;;;;;;;;4971842;28;20054;-64
2020/12/23 16:04:11;;;;;;;3.50;1.58;;;;;;;;;;4954910;23;20119;-64
2020/12/23 16:06:41;;;;;;;2.75;1.13;;;;;;;;;;4930773;29;20511;-64
2020/12/23 16:09:07;;;;;;;1.65;0.98;;;;;;;;;;4931320;29;20059;-64
2020/12/23 16:11:34;;;;;;;2.55;1.35;;;;;;;;;;4930823;29;20692;-63
2020/12/23 16:14:00;;;;;;;2.03;1.23;;;;;;;;;;4931365;29;20047;-69
2020/12/23 16:16:26;;;;;;;3.58;1.63;;;;;;;;;;4930941;29;20043;-69
2020/12/23 16:18:52;;;;;;;1.60;1.27;;;;;;;;;;4923150;29;20047;-67
2020/12/23 16:21:18;;;;;;;2.40;1.30;;;;;;;;;;4931333;29;20040;-65
2020/12/23 16:23:44;;;;;;;1.00;0.85;;;;;;;;;;4932087;29;20052;-66
2020/12/23 16:26:10;;;;;;;5.25;1.90;;;;;;;;;;4932174;29;20051;-65
2020/12/23 16:28:36;;;;;;;2.20;0.90;;;;;;;;;;4931284;29;20067;-65
2020/12/23 16:31:03;;;;;;;2.25;1.33;;;;;;;;;;4914977;29;20512;-64
2020/12/23 16:33:30;;;;;;;5.15;1.45;;;;;;;;;;4932430;29;20082;-64
2020/12/23 16:35:56;;;;;;;1.92;1.60;;;;;;;;;;4931377;29;20047;-64
2020/12/23 16:38:22;;;;;;;2.10;1.90;;;;;;;;;;4916994;29;20051;-65
2020/12/23 16:40:48;;;;;;;2.85;1.73;;;;;;;;;;4917241;29;20055;-64
2020/12/23 16:43:15;;;;;;;3.38;2.15;;;;;;;;;;4916719;29;20059;-65
2020/12/23 16:45:41;;;;;;;1.92;1.27;;;;;;;;;;4915822;29;20403;-65
2020/12/23 16:48:08;;;;;;;6.25;2.08;;;;;;;;;;4932151;29;20066;-65
2020/12/23 16:50:34;;;;;;;3.60;1.75;;;;;;;;;;4926422;29;20048;-64
2020/12/23 16:53:00;;;;;;;3.88;1.75;;;;;;;;;;4932135;29;20074;-65
2020/12/23 16:55:27;;;;;;;3.00;1.25;;;;;;;;;;4930702;29;20130;-66
2020/12/23 16:57:53;;;;;;;2.38;1.50;;;;;;;;;;4930428;29;20048;-65
2020/12/23 17:00:19;;;;;;;2.80;1.38;;;;;;;;;;4921877;29;20051;-65
2020/12/23 17:02:46;;;;;;;1.90;1.30;;;;;;;;;;4932679;29;20102;-64
2020/12/23 17:05:12;;;;;;;2.63;1.73;;;;;;;;;;4933757;29;20051;-65
2020/12/23 17:07:40;;;;;;;3.55;2.00;;;;;;;;;;4934128;29;20423;-64
2020/12/23 17:10:07;;;;;;;2.45;1.95;;;;;;;;;;4934925;29;20052;-65
2020/12/23 17:12:33;;;;;;;3.00;2.15;;;;;;;;;;4936219;29;20538;-66
2020/12/23 17:14:59;;;;;;;2.55;1.80;;;;;;;;;;4934542;29;20131;-65
2020/12/23 17:17:25;;;;;;;5.25;2.40;;;;;;;;;;4926031;29;20063;-66
2020/12/23 17:19:51;;;;;;;1.88;1.33;;;;;;;;;;4934534;29;20052;-65
2020/12/23 17:22:18;;;;;;;4.18;1.73;;;;;;;;;;4934440;29;20047;-66
2020/12/23 17:24:44;;;;;;;4.43;2.22;;;;;;;;;;4934699;29;20048;-66
2020/12/23 17:27:10;;;;;;;5.93;2.70;;;;;;;;;;4933503;29;20052;-65
2020/12/23 17:29:37;;;;;;;10.25;3.38;;;;;;;;;;4934359;29;20051;-66
2020/12/23 17:32:03;;;;;;;11.95;4.72;;;;;;;;;;4933302;29;20418;-65
2020/12/23 17:34:32;;;;;;;6.00;3.20;;;;;;;;;;4934490;29;20081;-66
2020/12/23 17:36:59;;;;;;;5.53;3.03;;;;;;;;;;4934018;29;20521;-66
2020/12/23 17:39:26;;;;;;;10.07;4.13;;;;;;;;;;4934359;29;20147;-66
2020/12/23 17:41:52;;;;;;;11.60;4.03;;;;;;;;;;4933222;29;20479;-65
2020/12/23 17:44:19;;;;;;;11.00;4.10;;;;;;;;;;4933769;29;20047;-66
2020/12/23 17:46:53;;;;;;;7.72;3.03;;;;;;;;;;4933352;29;20056;-65
2020/12/23 17:49:20;;;;;;;7.32;3.97;;;;;;;;;;4933949;29;20577;-65
2020/12/23 17:51:46;;;;;;;6.47;3.50;;;;;;;;;;4933947;29;20048;-65
2020/12/23 17:54:13;;;;;;;6.78;3.03;;;;;;;;;;4934096;29;20610;-66
2020/12/23 17:56:40;;;;;;;6.28;3.40;;;;;;;;;;4914502;29;20055;-66
2020/12/23 17:59:10;;;;;;;6.85;3.90;;;;;;;;;;4932361;29;20048;-66
2020/12/23 18:01:39;;;;;;;3.35;2.80;;;;;;;;;;4916670;29;20110;-70
2020/12/23 18:04:06;;;;;;;2.40;2.00;;;;;;;;;;4931539;29;20406;-65
2020/12/23 18:06:32;;;;;;;3.78;2.15;;;;;;;;;;4931756;29;20046;-68
2020/12/23 18:08:59;;;;;;;5.00;3.50;;;;;;;;;;4931115;29;20066;-71
2020/12/23 18:11:28;;;;;;;7.43;4.78;;;;;;;;;;4932239;29;20059;-64
2020/12/23 18:13:54;;;;;;;6.32;3.97;;;;;;;;;;4932007;29;20246;-65
2020/12/23 18:16:21;;;;;;;4.50;2.53;;;;;;;;;;4930307;29;20059;-65
2020/12/23 18:18:48;;;;;;;2.15;1.60;;;;;;;;;;4928560;29;20056;-66
2020/12/23 18:21:14;;;;;;;2.08;1.42;;;;;;;;;;4930670;29;20056;-68
2020/12/23 18:23:42;;;;;;;2.75;1.95;;;;;;;;;;4931035;29;20119;-67
2020/12/23 18:26:08;;;;;;;2.45;1.63;;;;;;;;;;4932105;29;20052;-71
2020/12/23 18:28:36;;;;;;;2.08;1.75;;;;;;;;;;4933186;29;20510;-66
2020/12/23 18:31:04;;;;;;;2.67;2.00;;;;;;;;;;4932840;29;20071;-68
2020/12/23 18:33:31;;;;;;;3.80;2.47;;;;;;;;;;4932405;29;20071;-67
2020/12/23 18:35:57;;;;;;;3.25;2.53;;;;;;;;;;4931816;29;20062;-68
2020/12/23 18:38:23;;;;;;;6.50;3.10;;;;;;;;;;4932946;29;20052;-67
2020/12/23 18:40:50;;;;;;;4.63;2.90;;;;;;;;;;4934444;29;20055;-63
2020/12/23 18:43:16;;;;;;;7.47;4.13;;;;;;;;;;4932262;29;20066;-69
2020/12/23 18:45:45;;;;;;;3.90;2.83;;;;;;;;;;4916674;29;20051;-64
2020/12/23 18:48:12;;;;;;;4.22;2.60;;;;;;;;;;4932120;29;20060;-64
2020/12/23 18:50:38;;;;;;;3.80;2.40;;;;;;;;;;4932684;29;20056;-65
2020/12/23 18:53:04;;;;;;;3.08;2.33;;;;;;;;;;4932171;29;20083;-68
2020/12/23 18:55:31;;;;;;;3.10;2.65;;;;;;;;;;4933368;29;20051;-66
2020/12/23 18:57:57;;;;;;;3.83;3.08;;;;;;;;;;4916644;29;20495;-65
2020/12/23 19:00:26;;;;;;;8.52;4.78;;;;;;;;;;4916669;29;20048;-66
2020/12/23 19:02:52;;;;;;;5.82;4.32;;;;;;;;;;4916896;29;20055;-65
2020/12/23 19:05:18;;;;;;;9.70;5.80;;;;;;;;;;4932538;29;20651;-67
2020/12/23 19:07:45;;;;;;;8.65;5.38;;;;;;;;;;4929465;29;20059;-68
2020/12/23 19:10:20;;;;;;;7.38;4.53;;;;;;;;;;4932178;29;20052;-67
2020/12/23 19:12:47;;;;;;;4.97;3.65;;;;;;;;;;4932354;29;20047;-64
2020/12/23 19:15:16;;;;;;;3.78;2.90;;;;;;;;;;4930911;29;20068;-64
2020/12/23 19:17:46;;;;;;;2.90;2.40;;;;;;;;;;4931697;29;20056;-64
2020/12/23 19:20:12;;;;;;;3.33;2.25;;;;;;;;;;4916554;29;20060;-67
2020/12/23 19:22:42;;;;;;;3.20;2.53;;;;;;;;;;4916940;29;20052;-65
2020/12/23 19:25:10;;;;;;;7.47;2.42;;;;;;;;;;4915759;29;20410;-63
2020/12/23 19:27:36;;;;;;;4.63;2.97;;;;;;;;;;4915783;29;20067;-66
2020/12/23 19:30:06;;;;;;;4.13;2.13;;;;;;;;;;4916474;29;20044;-65
2020/12/23 19:32:34;;;;;;;2.03;1.67;;;;;;;;;;4931978;29;20166;-64
2020/12/23 19:35:04;;;;;;;1.58;1.27;;;;;;;;;;4931755;29;20051;-68
2020/12/23 19:37:31;;;;;;;1.75;1.00;;;;;;;;;;4931588;29;20418;-68
2020/12/23 19:39:57;;;;;;;1.92;0.77;;;;;;;;;;4931023;29;20059;-66
2020/12/23 19:42:29;;;;;;;0.95;0.70;;;;;;;;;;4931663;29;20059;-70
2020/12/23 19:44:55;;;;;;;0.73;0.60;;;;;;;;;;4915689;29;20113;-65
2020/12/23 19:47:21;;;;;;;1.23;0.70;;;;;;;;;;4929837;29;20064;-74
2020/12/23 19:49:48;;;;;;;3.65;0.50;;;;;;;;;;4930999;29;20059;-68
2020/12/23 19:52:14;;;;;;;0.77;0.65;;;;;;;;;;4930390;29;20394;-74
2020/12/23 19:54:41;;;;;;;0.40;0.30;;;;;;;;;;4930720;29;20150;-73
2020/12/23 19:57:11;;;;;;;1.17;0.50;;;;;;;;;;4929988;29;20521;-69
2020/12/23 19:59:41;;;;;;;0.68;0.68;;;;;;;;;;4930678;29;20162;-69
2020/12/23 20:02:07;;;;;;;0.98;0.68;;;;;;;;;;4930046;29;20063;-66
2020/12/23 20:04:35;;;;;;;0.55;0.55;;;;;;;;;;4930592;29;20063;-67
2020/12/23 20:07:02;;;;;;;3.13;1.55;;;;;;;;;;4930013;29;20051;-68
2020/12/23 20:09:29;;;;;;;0.93;0.60;;;;;;;;;;4931475;29;20491;-67